sensor_id;sensor_type;location;lat;lon;timestamp;pressure;altitude;pressure_sealevel;temperature;humidity
70229;BME280;57617;51.988;5.854;2022-08-02T00:00:45;101451.53;;;18.14;58.12
70229;BME280;57617;51.988;5.854;2022-08-02T00:03:10;101449.59;;;18.14;58.42
70229;BME280;57617;51.988;5.854;2022-08-02T00:05:35;101452.34;;;18.19;58.21
70229;BME280;57617;51.988;5.854;2022-08-02T00:08:01;101448.22;;;18.22;58.38
70229;BME280;57617;51.988;5.854;2022-08-02T00:10:26;101436.94;;;18.23;58.23
70229;BME280;57617;51.988;5.854;2022-08-02T00:12:52;101439.44;;;18.25;58.50
70229;BME280;57617;51.988;5.854;2022-08-02T00:15:17;101440.81;;;18.27;58.53
70229;BME280;57617;51.988;5.854;2022-08-02T00:17:43;101438.06;;;18.33;58.47
70229;BME280;57617;51.988;5.854;2022-08-02T00:20:09;101443.00;;;18.36;58.45
70229;BME280;57617;51.988;5.854;2022-08-02T00:22:36;101436.69;;;18.35;58.36
70229;BME280;57617;51.988;5.854;2022-08-02T00:25:02;101444.13;;;18.40;59.01
70229;BME280;57617;51.988;5.854;2022-08-02T00:27:27;101439.72;;;18.39;58.56
70229;BME280;57617;51.988;5.854;2022-08-02T00:29:53;101444.13;;;18.35;58.43
70229;BME280;57617;51.988;5.854;2022-08-02T00:32:20;101447.72;;;18.35;58.56
70229;BME280;57617;51.988;5.854;2022-08-02T00:34:45;101447.41;;;18.32;58.57
70229;BME280;57617;51.988;5.854;2022-08-02T00:37:11;101445.75;;;18.31;58.32
70229;BME280;57617;51.988;5.854;2022-08-02T00:39:36;101442.44;;;18.28;58.25
70229;BME280;57617;51.988;5.854;2022-08-02T00:42:01;101435.56;;;18.26;58.36
70229;BME280;57617;51.988;5.854;2022-08-02T00:44:27;101431.19;;;18.25;58.45
70229;BME280;57617;51.988;5.854;2022-08-02T00:46:52;101414.94;;;18.23;58.77
70229;BME280;57617;51.988;5.854;2022-08-02T00:49:17;101426.50;;;18.26;58.56
70229;BME280;57617;51.988;5.854;2022-08-02T00:51:43;101435.03;;;18.24;58.50
70229;BME280;57617;51.988;5.854;2022-08-02T00:54:08;101432.81;;;18.26;58.43
70229;BME280;57617;51.988;5.854;2022-08-02T00:56:34;101420.19;;;18.20;58.39
70229;BME280;57617;51.988;5.854;2022-08-02T00:59:00;101422.38;;;18.23;58.57
70229;BME280;57617;51.988;5.854;2022-08-02T01:01:25;101425.41;;;18.22;58.66
70229;BME280;57617;51.988;5.854;2022-08-02T01:04:11;101428.69;;;18.23;58.72
70229;BME280;57617;51.988;5.854;2022-08-02T01:06:39;101428.44;;;18.25;58.49
70229;BME280;57617;51.988;5.854;2022-08-02T01:09:05;101422.09;;;18.19;58.44
70229;BME280;57617;51.988;5.854;2022-08-02T01:11:31;101433.09;;;18.24;58.50
70229;BME280;57617;51.988;5.854;2022-08-02T01:14:01;101418.25;;;18.26;58.67
70229;BME280;57617;51.988;5.854;2022-08-02T01:16:30;101425.94;;;18.28;58.56
70229;BME280;57617;51.988;5.854;2022-08-02T01:19:01;101426.25;;;18.32;58.78
70229;BME280;57617;51.988;5.854;2022-08-02T01:21:37;101417.16;;;18.32;58.94
70229;BME280;57617;51.988;5.854;2022-08-02T01:29:32;101413.59;;;18.36;58.74
70229;BME280;57617;51.988;5.854;2022-08-02T01:32:07;101411.94;;;18.35;58.90
70229;BME280;57617;51.988;5.854;2022-08-02T01:34:40;101407.81;;;18.33;58.96
70229;BME280;57617;51.988;5.854;2022-08-02T01:39:53;101398.19;;;18.35;58.90
70229;BME280;57617;51.988;5.854;2022-08-02T01:42:21;101399.00;;;18.36;58.65
70229;BME280;57617;51.988;5.854;2022-08-02T01:44:49;101385.25;;;18.31;58.71
70229;BME280;57617;51.988;5.854;2022-08-02T01:47:21;101400.66;;;18.37;58.73
70229;BME280;57617;51.988;5.854;2022-08-02T01:49:51;101380.31;;;18.23;58.73
70229;BME280;57617;51.988;5.854;2022-08-02T01:52:20;101392.41;;;18.37;58.71
70229;BME280;57617;51.988;5.854;2022-08-02T01:57:36;101390.75;;;18.36;58.73
70229;BME280;57617;51.988;5.854;2022-08-02T02:00:07;101393.50;;;18.36;58.61
70229;BME280;57617;51.988;5.854;2022-08-02T02:02:35;101392.97;;;18.34;58.72
70229;BME280;57617;51.988;5.854;2022-08-02T02:05:02;101383.31;;;18.26;58.40
70229;BME280;57617;51.988;5.854;2022-08-02T02:07:29;101373.69;;;18.23;58.60
70229;BME280;57617;51.988;5.854;2022-08-02T02:09:57;101382.78;;;18.29;58.68
70229;BME280;57617;51.988;5.854;2022-08-02T02:12:23;101375.63;;;18.23;58.63
70229;BME280;57617;51.988;5.854;2022-08-02T02:14:50;101373.16;;;18.27;58.37
70229;BME280;57617;51.988;5.854;2022-08-02T02:17:16;101378.38;;;18.28;58.46
70229;BME280;57617;51.988;5.854;2022-08-02T02:19:43;101374.25;;;18.31;58.38
70229;BME280;57617;51.988;5.854;2022-08-02T02:22:09;101370.66;;;18.30;58.33
70229;BME280;57617;51.988;5.854;2022-08-02T02:24:34;101372.31;;;18.31;58.02
70229;BME280;57617;51.988;5.854;2022-08-02T02:27:01;101363.25;;;18.31;58.08
70229;BME280;57617;51.988;5.854;2022-08-02T02:29:29;101364.88;;;18.32;58.02
70229;BME280;57617;51.988;5.854;2022-08-02T02:31:57;101374.25;;;18.31;57.88
70229;BME280;57617;51.988;5.854;2022-08-02T02:34:28;101363.25;;;18.31;58.06
70229;BME280;57617;51.988;5.854;2022-08-02T02:36:55;101358.56;;;18.31;58.29
70229;BME280;57617;51.988;5.854;2022-08-02T02:39:22;101360.50;;;18.31;57.95
70229;BME280;57617;51.988;5.854;2022-08-02T02:41:50;101365.16;;;18.30;58.14
70229;BME280;57617;51.988;5.854;2022-08-02T02:44:18;101347.81;;;18.24;58.25
70229;BME280;57617;51.988;5.854;2022-08-02T02:46:45;101348.94;;;18.28;58.02
70229;BME280;57617;51.988;5.854;2022-08-02T02:49:13;101348.94;;;18.28;58.22
70229;BME280;57617;51.988;5.854;2022-08-02T02:51:40;101345.06;;;18.29;58.15
70229;BME280;57617;51.988;5.854;2022-08-02T02:54:07;101345.91;;;18.30;58.08
70229;BME280;57617;51.988;5.854;2022-08-02T02:56:34;101340.41;;;18.30;58.08
70229;BME280;57617;51.988;5.854;2022-08-02T02:59:01;101342.88;;;18.32;57.92
70229;BME280;57617;51.988;5.854;2022-08-02T03:01:27;101332.16;;;18.30;58.01
70229;BME280;57617;51.988;5.854;2022-08-02T03:04:01;101328.56;;;18.24;58.19
70229;BME280;57617;51.988;5.854;2022-08-02T03:06:28;101335.75;;;18.26;57.98
70229;BME280;57617;51.988;5.854;2022-08-02T03:08:54;101338.22;;;18.22;58.26
70229;BME280;57617;51.988;5.854;2022-08-02T03:11:20;101348.41;;;18.22;58.33
70229;BME280;57617;51.988;5.854;2022-08-02T03:13:46;101342.34;;;18.19;58.35
70229;BME280;57617;51.988;5.854;2022-08-02T03:16:12;101347.31;;;18.17;58.26
70229;BME280;57617;51.988;5.854;2022-08-02T03:18:39;101347.84;;;18.14;58.34
70229;BME280;57617;51.988;5.854;2022-08-02T03:21:09;101357.47;;;18.12;58.25
70229;BME280;57617;51.988;5.854;2022-08-02T03:23:35;101354.47;;;18.08;58.21
70229;BME280;57617;51.988;5.854;2022-08-02T03:26:01;101351.19;;;18.07;58.36
70229;BME280;57617;51.988;5.854;2022-08-02T03:28:27;101351.72;;;18.03;58.51
70229;BME280;57617;51.988;5.854;2022-08-02T03:30:52;101337.72;;;17.95;58.44
70229;BME280;57617;51.988;5.854;2022-08-02T03:33:19;101347.88;;;17.99;58.70
70229;BME280;57617;51.988;5.854;2022-08-02T03:35:47;101348.16;;;17.98;58.45
70229;BME280;57617;51.988;5.854;2022-08-02T03:38:14;101348.16;;;17.98;58.73
70229;BME280;57617;51.988;5.854;2022-08-02T03:40:44;101337.72;;;18.00;58.96
70229;BME280;57617;51.988;5.854;2022-08-02T03:43:10;101329.19;;;18.02;58.62
70229;BME280;57617;51.988;5.854;2022-08-02T03:45:38;101329.72;;;18.03;58.71
70229;BME280;57617;51.988;5.854;2022-08-02T03:48:06;101328.63;;;18.04;58.65
70229;BME280;57617;51.988;5.854;2022-08-02T03:50:32;101331.66;;;18.08;58.94
70229;BME280;57617;51.988;5.854;2022-08-02T03:52:58;101328.59;;;18.09;58.91
70229;BME280;57617;51.988;5.854;2022-08-02T03:55:24;101314.06;;;18.04;58.89
70229;BME280;57617;51.988;5.854;2022-08-02T03:57:49;101333.56;;;18.13;58.97
70229;BME280;57617;51.988;5.854;2022-08-02T04:00:19;101328.59;;;18.14;58.92
70229;BME280;57617;51.988;5.854;2022-08-02T04:02:45;101331.66;;;18.18;58.83
70229;BME280;57617;51.988;5.854;2022-08-02T04:05:11;101332.44;;;18.18;58.98
70229;BME280;57617;51.988;5.854;2022-08-02T04:07:37;101331.34;;;18.19;59.01
70229;BME280;57617;51.988;5.854;2022-08-02T04:10:03;101326.94;;;18.23;59.17
70229;BME280;57617;51.988;5.854;2022-08-02T04:12:29;101317.88;;;18.23;59.03
70229;BME280;57617;51.988;5.854;2022-08-02T04:14:54;101317.56;;;18.29;58.88
70229;BME280;57617;51.988;5.854;2022-08-02T04:17:21;101318.69;;;18.34;58.88
70229;BME280;57617;51.988;5.854;2022-08-02T04:19:52;101312.09;;;18.35;59.03
70229;BME280;57617;51.988;5.854;2022-08-02T04:22:28;101319.78;;;18.38;58.99
70229;BME280;57617;51.988;5.854;2022-08-02T04:24:59;101318.97;;;18.37;59.11
70229;BME280;57617;51.988;5.854;2022-08-02T04:27:25;101312.09;;;18.35;58.79
70229;BME280;57617;51.988;5.854;2022-08-02T04:29:52;101316.75;;;18.39;58.94
70229;BME280;57617;51.988;5.854;2022-08-02T04:32:18;101325.81;;;18.40;59.00
70229;BME280;57617;51.988;5.854;2022-08-02T04:34:44;101329.97;;;18.37;58.94
70229;BME280;57617;51.988;5.854;2022-08-02T04:37:11;101327.22;;;18.37;59.11
70229;BME280;57617;51.988;5.854;2022-08-02T04:39:37;101329.44;;;18.35;59.13
70229;BME280;57617;51.988;5.854;2022-08-02T04:42:02;101330.53;;;18.34;59.29
70229;BME280;57617;51.988;5.854;2022-08-02T04:44:28;101336.31;;;18.33;59.20
70229;BME280;57617;51.988;5.854;2022-08-02T04:46:53;101335.19;;;18.34;59.47
70229;BME280;57617;51.988;5.854;2022-08-02T04:49:20;101325.84;;;18.35;59.60
70229;BME280;57617;51.988;5.854;2022-08-02T04:51:45;101320.91;;;18.37;59.53
70229;BME280;57617;51.988;5.854;2022-08-02T04:54:11;101320.31;;;18.40;59.36
70229;BME280;57617;51.988;5.854;2022-08-02T04:56:37;101324.72;;;18.41;59.41
70229;BME280;57617;51.988;5.854;2022-08-02T04:59:03;101318.94;;;18.42;59.26
70229;BME280;57617;51.988;5.854;2022-08-02T05:01:28;101325.28;;;18.43;59.39
70229;BME280;57617;51.988;5.854;2022-08-02T05:03:54;101325.81;;;18.45;59.24
70229;BME280;57617;51.988;5.854;2022-08-02T05:06:19;101334.91;;;18.45;59.38
70229;BME280;57617;51.988;5.854;2022-08-02T05:08:48;101331.31;;;18.45;59.56
70229;BME280;57617;51.988;5.854;2022-08-02T05:11:13;101324.69;;;18.46;59.32
70229;BME280;57617;51.988;5.854;2022-08-02T05:13:42;101315.63;;;18.50;59.70
70229;BME280;57617;51.988;5.854;2022-08-02T05:16:08;101311.75;;;18.51;59.38
70229;BME280;57617;51.988;5.854;2022-08-02T05:18:33;101317.00;;;18.53;59.43
70229;BME280;57617;51.988;5.854;2022-08-02T05:20:58;101320.84;;;18.52;59.47
70229;BME280;57617;51.988;5.854;2022-08-02T05:23:23;101320.28;;;18.50;59.54
70229;BME280;57617;51.988;5.854;2022-08-02T05:25:49;101320.00;;;18.51;59.67
70229;BME280;57617;51.988;5.854;2022-08-02T05:28:14;101314.25;;;18.53;59.64
70229;BME280;57617;51.988;5.854;2022-08-02T05:30:39;101313.97;;;18.54;59.44
70229;BME280;57617;51.988;5.854;2022-08-02T05:33:05;101318.09;;;18.57;59.51
70229;BME280;57617;51.988;5.854;2022-08-02T05:35:30;101310.34;;;18.59;59.31
70229;BME280;57617;51.988;5.854;2022-08-02T05:37:56;101312.84;;;18.60;59.25
70229;BME280;57617;51.988;5.854;2022-08-02T05:40:21;101317.22;;;18.61;59.47
70229;BME280;57617;51.988;5.854;2022-08-02T05:42:47;101310.34;;;18.64;59.42
70229;BME280;57617;51.988;5.854;2022-08-02T05:45:12;101290.81;;;18.60;59.11
70229;BME280;57617;51.988;5.854;2022-08-02T05:47:38;101308.94;;;18.66;59.23
70229;BME280;57617;51.988;5.854;2022-08-02T05:50:06;101303.44;;;18.71;59.17
70229;BME280;57617;51.988;5.854;2022-08-02T05:55:32;101311.38;;;18.78;59.36
70229;BME280;57617;51.988;5.854;2022-08-02T05:58:12;101301.75;;;18.80;58.97
70229;BME280;57617;51.988;5.854;2022-08-02T06:00:40;101317.66;;;18.88;59.03
70229;BME280;57617;51.988;5.854;2022-08-02T06:03:30;101308.00;;;18.91;58.91
70229;BME280;57617;51.988;5.854;2022-08-02T06:08:22;101313.19;;;18.97;58.76
70229;BME280;57617;51.988;5.854;2022-08-02T06:10:50;101316.47;;;18.99;59.01
70229;BME280;57617;51.988;5.854;2022-08-02T06:13:16;101312.91;;;19.04;58.88
70229;BME280;57617;51.988;5.854;2022-08-02T06:15:42;101313.66;;;19.09;58.88
70229;BME280;57617;51.988;5.854;2022-08-02T06:18:08;101325.50;;;19.15;58.73
70229;BME280;57617;51.988;5.854;2022-08-02T06:20:34;101319.69;;;19.21;58.72
70229;BME280;57617;51.988;5.854;2022-08-02T06:23:04;101315.84;;;19.22;58.54
70229;BME280;57617;51.988;5.854;2022-08-02T06:25:31;101320.44;;;19.32;58.81
70229;BME280;57617;51.988;5.854;2022-08-02T06:28:01;101317.66;;;19.37;58.71
70229;BME280;57617;51.988;5.854;2022-08-02T06:30:27;101308.84;;;19.40;58.85
70229;BME280;57617;51.988;5.854;2022-08-02T06:32:53;101309.06;;;19.43;58.68
70229;BME280;57617;51.988;5.854;2022-08-02T06:35:19;101304.94;;;19.46;58.96
70229;BME280;57617;51.988;5.854;2022-08-02T06:37:50;101310.41;;;19.51;59.12
70229;BME280;57617;51.988;5.854;2022-08-02T06:42:43;101301.22;;;19.60;58.99
70229;BME280;57617;51.988;5.854;2022-08-02T06:45:12;101297.63;;;19.65;59.11
70229;BME280;57617;51.988;5.854;2022-08-02T06:47:37;101277.75;;;19.63;59.24
70229;BME280;57617;51.988;5.854;2022-08-02T06:50:03;101290.94;;;19.71;59.15
70229;BME280;57617;51.988;5.854;2022-08-02T06:52:28;101295.84;;;19.74;59.23
70229;BME280;57617;51.988;5.854;2022-08-02T06:54:58;101294.72;;;19.80;59.58
70229;BME280;57617;51.988;5.854;2022-08-02T06:57:24;101291.09;;;19.84;59.56
70229;BME280;57617;51.988;5.854;2022-08-02T06:59:49;101293.78;;;19.89;59.41
70229;BME280;57617;51.988;5.854;2022-08-02T07:02:15;101285.47;;;19.94;59.62
70229;BME280;57617;51.988;5.854;2022-08-02T07:04:40;101281.53;;;20.00;59.51
70229;BME280;57617;51.988;5.854;2022-08-02T07:07:05;101291.72;;;20.05;59.94
70229;BME280;57617;51.988;5.854;2022-08-02T07:09:31;101283.41;;;20.10;59.80
70229;BME280;57617;51.988;5.854;2022-08-02T07:11:56;101280.31;;;20.16;60.04
70229;BME280;57617;51.988;5.854;2022-08-02T07:14:21;101280.47;;;20.25;59.74
70229;BME280;57617;51.988;5.854;2022-08-02T07:16:47;101280.41;;;20.30;59.89
70229;BME280;57617;51.988;5.854;2022-08-02T07:19:12;101280.06;;;20.36;59.69
70229;BME280;57617;51.988;5.854;2022-08-02T07:21:37;101269.19;;;20.45;59.96
70229;BME280;57617;51.988;5.854;2022-08-02T07:24:03;101264.97;;;20.52;59.93
70229;BME280;57617;51.988;5.854;2022-08-02T07:26:28;101267.09;;;20.60;60.05
70229;BME280;57617;51.988;5.854;2022-08-02T07:28:54;101268.66;;;20.66;60.03
70229;BME280;57617;51.988;5.854;2022-08-02T07:31:19;101263.59;;;20.73;59.70
70229;BME280;57617;51.988;5.854;2022-08-02T07:33:44;101261.28;;;20.80;59.81
70229;BME280;57617;51.988;5.854;2022-08-02T07:36:10;101275.25;;;20.89;60.02
70229;BME280;57617;51.988;5.854;2022-08-02T07:38:35;101271.56;;;20.98;59.97
70229;BME280;57617;51.988;5.854;2022-08-02T07:41:00;101266.16;;;21.07;60.24
70229;BME280;57617;51.988;5.854;2022-08-02T07:43:26;101261.63;;;21.16;60.29
70229;BME280;57617;51.988;5.854;2022-08-02T07:45:51;101262.59;;;21.25;60.25
70229;BME280;57617;51.988;5.854;2022-08-02T07:48:16;101252.50;;;21.34;60.01
70229;BME280;57617;51.988;5.854;2022-08-02T07:50:41;101247.63;;;21.44;60.05
70229;BME280;57617;51.988;5.854;2022-08-02T07:53:07;101246.41;;;21.50;60.25
70229;BME280;57617;51.988;5.854;2022-08-02T07:55:32;101255.56;;;21.64;60.13
70229;BME280;57617;51.988;5.854;2022-08-02T07:57:57;101251.00;;;21.73;60.00
70229;BME280;57617;51.988;5.854;2022-08-02T08:00:23;101247.03;;;21.79;59.91
70229;BME280;57617;51.988;5.854;2022-08-02T08:02:48;101249.41;;;21.86;59.76
70229;BME280;57617;51.988;5.854;2022-08-02T08:05:13;101243.47;;;21.92;59.70
70229;BME280;57617;51.988;5.854;2022-08-02T08:07:39;101243.06;;;21.99;59.71
70229;BME280;57617;51.988;5.854;2022-08-02T08:10:05;101242.16;;;22.03;59.59
70229;BME280;57617;51.988;5.854;2022-08-02T08:12:31;101242.56;;;22.10;59.58
70229;BME280;57617;51.988;5.854;2022-08-02T08:14:56;101241.03;;;22.18;59.36
70229;BME280;57617;51.988;5.854;2022-08-02T08:17:22;101241.75;;;22.23;59.18
70229;BME280;57617;51.988;5.854;2022-08-02T08:19:47;101244.44;;;22.28;58.88
70229;BME280;57617;51.988;5.854;2022-08-02T08:22:12;101239.41;;;22.30;58.72
70229;BME280;57617;51.988;5.854;2022-08-02T08:24:38;101243.19;;;22.34;58.96
70229;BME280;57617;51.988;5.854;2022-08-02T08:27:04;101243.91;;;22.40;58.72
70229;BME280;57617;51.988;5.854;2022-08-02T08:29:30;101235.22;;;22.46;58.63
70229;BME280;57617;51.988;5.854;2022-08-02T08:31:55;101237.06;;;22.51;58.41
70229;BME280;57617;51.988;5.854;2022-08-02T08:34:20;101238.06;;;22.55;57.65
70229;BME280;57617;51.988;5.854;2022-08-02T08:36:48;101236.22;;;22.64;57.84
70229;BME280;57617;51.988;5.854;2022-08-02T08:39:13;101235.16;;;22.73;57.99
70229;BME280;57617;51.988;5.854;2022-08-02T08:41:41;101234.13;;;22.83;57.60
70229;BME280;57617;51.988;5.854;2022-08-02T08:44:07;101229.50;;;22.92;57.10
70229;BME280;57617;51.988;5.854;2022-08-02T08:46:35;101231.63;;;22.95;56.80
70229;BME280;57617;51.988;5.854;2022-08-02T08:49:08;101225.97;;;23.00;56.83
70229;BME280;57617;51.988;5.854;2022-08-02T08:51:41;101229.94;;;23.07;57.04
70229;BME280;57617;51.988;5.854;2022-08-02T08:54:10;101210.66;;;23.02;56.67
70229;BME280;57617;51.988;5.854;2022-08-02T08:56:37;101232.38;;;23.22;56.26
70229;BME280;57617;51.988;5.854;2022-08-02T08:59:04;101229.69;;;23.31;56.14
70229;BME280;57617;51.988;5.854;2022-08-02T09:01:29;101230.44;;;23.45;55.30
70229;BME280;57617;51.988;5.854;2022-08-02T09:03:56;101233.97;;;23.59;55.58
70229;BME280;57617;51.988;5.854;2022-08-02T09:06:21;101234.81;;;23.68;54.92
70229;BME280;57617;51.988;5.854;2022-08-02T09:08:47;101231.28;;;23.76;54.33
70229;BME280;57617;51.988;5.854;2022-08-02T09:11:14;101232.28;;;23.80;53.90
70229;BME280;57617;51.988;5.854;2022-08-02T09:13:48;101230.25;;;23.94;52.40
70229;BME280;57617;51.988;5.854;2022-08-02T09:16:14;101233.28;;;24.06;52.98
70229;BME280;57617;51.988;5.854;2022-08-02T09:18:43;101237.09;;;24.18;52.63
70229;BME280;57617;51.988;5.854;2022-08-02T09:21:09;101235.81;;;24.33;52.01
70229;BME280;57617;51.988;5.854;2022-08-02T09:23:45;101231.75;;;24.39;51.45
70229;BME280;57617;51.988;5.854;2022-08-02T09:26:13;101230.31;;;24.50;51.34
70229;BME280;57617;51.988;5.854;2022-08-02T09:28:41;101227.78;;;24.62;51.63
70229;BME280;57617;51.988;5.854;2022-08-02T09:31:10;101232.34;;;24.75;51.47
70229;BME280;57617;51.988;5.854;2022-08-02T09:33:38;101223.06;;;24.88;51.00
70229;BME280;57617;51.988;5.854;2022-08-02T09:36:13;101219.66;;;25.08;49.74
70229;BME280;57617;51.988;5.854;2022-08-02T09:38:52;101228.63;;;25.22;50.58
70229;BME280;57617;51.988;5.854;2022-08-02T09:41:26;101230.94;;;25.45;49.87
70229;BME280;57617;51.988;5.854;2022-08-02T09:43:52;101220.41;;;25.59;50.10
70229;BME280;57617;51.988;5.854;2022-08-02T09:46:30;101233.00;;;25.74;48.59
70229;BME280;57617;51.988;5.854;2022-08-02T09:49:04;101227.56;;;25.86;48.71
70229;BME280;57617;51.988;5.854;2022-08-02T09:51:36;101228.69;;;26.02;48.46
70229;BME280;57617;51.988;5.854;2022-08-02T09:54:04;101229.28;;;26.16;48.68
70229;BME280;57617;51.988;5.854;2022-08-02T09:56:48;101219.53;;;26.30;47.61
70229;BME280;57617;51.988;5.854;2022-08-02T09:59:14;101228.97;;;26.46;47.68
70229;BME280;57617;51.988;5.854;2022-08-02T10:01:41;101229.25;;;26.53;47.04
70229;BME280;57617;51.988;5.854;2022-08-02T10:04:09;101233.38;;;26.56;46.97
70229;BME280;57617;51.988;5.854;2022-08-02T10:06:37;101228.41;;;26.61;47.29
70229;BME280;57617;51.988;5.854;2022-08-02T10:09:04;101228.03;;;26.71;47.36
70229;BME280;57617;51.988;5.854;2022-08-02T10:11:29;101222.38;;;26.80;46.89
70229;BME280;57617;51.988;5.854;2022-08-02T10:13:55;101232.22;;;26.86;46.22
70229;BME280;57617;51.988;5.854;2022-08-02T10:16:22;101228.97;;;26.96;46.43
70229;BME280;57617;51.988;5.854;2022-08-02T10:18:52;101230.91;;;27.04;45.58
70229;BME280;57617;51.988;5.854;2022-08-02T10:21:25;101238.03;;;27.13;45.83
70229;BME280;57617;51.988;5.854;2022-08-02T10:23:59;101228.00;;;27.21;45.84
70229;BME280;57617;51.988;5.854;2022-08-02T10:26:29;101236.66;;;27.28;45.72
70229;BME280;57617;51.988;5.854;2022-08-02T10:28:55;101238.88;;;27.34;45.09
70229;BME280;57617;51.988;5.854;2022-08-02T10:31:23;101233.66;;;27.33;44.56
70229;BME280;57617;51.988;5.854;2022-08-02T10:33:51;101224.09;;;27.34;44.64
70229;BME280;57617;51.988;5.854;2022-08-02T10:36:18;101217.25;;;27.31;44.01
70229;BME280;57617;51.988;5.854;2022-08-02T10:38:45;101222.81;;;27.31;44.37
70229;BME280;57617;51.988;5.854;2022-08-02T10:41:11;101222.69;;;27.28;44.19
70229;BME280;57617;51.988;5.854;2022-08-02T10:43:42;101225.94;;;27.30;44.03
70229;BME280;57617;51.988;5.854;2022-08-02T10:49:11;101217.38;;;27.35;43.57
70229;BME280;57617;51.988;5.854;2022-08-02T10:54:18;101220.94;;;27.56;42.71
70229;BME280;57617;51.988;5.854;2022-08-02T10:56:48;101214.22;;;27.69;42.74
70229;BME280;57617;51.988;5.854;2022-08-02T10:59:30;101219.75;;;27.89;41.84
70229;BME280;57617;51.988;5.854;2022-08-02T11:01:58;101214.34;;;28.05;42.21
70229;BME280;57617;51.988;5.854;2022-08-02T11:07:15;101209.22;;;28.31;40.04
70229;BME280;57617;51.988;5.854;2022-08-02T11:09:46;101203.75;;;28.34;40.97
70229;BME280;57617;51.988;5.854;2022-08-02T11:12:19;101212.94;;;28.35;40.01
70229;BME280;57617;51.988;5.854;2022-08-02T11:15:03;101200.50;;;28.44;39.02
70229;BME280;57617;51.988;5.854;2022-08-02T11:17:54;101207.97;;;28.40;39.20
70229;BME280;57617;51.988;5.854;2022-08-02T11:20:21;101219.22;;;28.32;40.12
70229;BME280;57617;51.988;5.854;2022-08-02T11:22:48;101212.34;;;28.29;39.88
70229;BME280;57617;51.988;5.854;2022-08-02T11:27:47;101211.94;;;28.39;40.19
70229;BME280;57617;51.988;5.854;2022-08-02T11:30:13;101210.63;;;28.49;39.40
70229;BME280;57617;51.988;5.854;2022-08-02T11:32:38;101207.13;;;28.52;39.16
70229;BME280;57617;51.988;5.854;2022-08-02T11:35:04;101207.34;;;28.59;39.24
70229;BME280;57617;51.988;5.854;2022-08-02T11:37:43;101203.38;;;28.72;38.61
70229;BME280;57617;51.988;5.854;2022-08-02T11:40:12;101200.81;;;28.79;38.54
70229;BME280;57617;51.988;5.854;2022-08-02T11:42:40;101199.63;;;28.92;38.20
70229;BME280;57617;51.988;5.854;2022-08-02T11:45:08;101187.13;;;29.01;38.30
70229;BME280;57617;51.988;5.854;2022-08-02T11:47:48;101189.88;;;29.13;37.79
70229;BME280;57617;51.988;5.854;2022-08-02T11:50:14;101187.56;;;29.15;37.21
70229;BME280;57617;51.988;5.854;2022-08-02T11:52:41;101188.94;;;29.21;36.82
70229;BME280;57617;51.988;5.854;2022-08-02T11:55:08;101190.00;;;29.17;36.98
70229;BME280;57617;51.988;5.854;2022-08-02T11:57:34;101209.72;;;29.08;37.44
70229;BME280;57617;51.988;5.854;2022-08-02T12:00:00;101197.25;;;28.94;37.02
70229;BME280;57617;51.988;5.854;2022-08-02T12:02:30;101202.19;;;28.97;36.65
70229;BME280;57617;51.988;5.854;2022-08-02T12:05:04;101204.94;;;29.09;37.02
70229;BME280;57617;51.988;5.854;2022-08-02T12:07:35;101201.19;;;29.17;36.02
70229;BME280;57617;51.988;5.854;2022-08-02T12:10:07;101196.16;;;29.22;35.73
70229;BME280;57617;51.988;5.854;2022-08-02T12:12:52;101196.66;;;29.40;35.70
70229;BME280;57617;51.988;5.854;2022-08-02T12:15:39;101193.78;;;29.52;34.88
70229;BME280;57617;51.988;5.854;2022-08-02T12:18:14;101185.84;;;29.54;35.74
70229;BME280;57617;51.988;5.854;2022-08-02T12:20:58;101176.22;;;29.67;35.67
70229;BME280;57617;51.988;5.854;2022-08-02T12:23:24;101181.75;;;29.79;35.37
70229;BME280;57617;51.988;5.854;2022-08-02T12:26:06;101177.06;;;29.83;34.16
70229;BME280;57617;51.988;5.854;2022-08-02T12:28:35;101171.91;;;29.85;35.15
70229;BME280;57617;51.988;5.854;2022-08-02T12:31:03;101177.41;;;29.97;35.02
70229;BME280;57617;51.988;5.854;2022-08-02T12:34:01;101184.25;;;30.11;34.20
70229;BME280;57617;51.988;5.854;2022-08-02T12:36:32;101196.72;;;30.14;33.95
70229;BME280;57617;51.988;5.854;2022-08-02T12:38:59;101179.16;;;30.17;33.55
70229;BME280;57617;51.988;5.854;2022-08-02T12:41:26;101177.63;;;30.19;33.12
70229;BME280;57617;51.988;5.854;2022-08-02T12:43:53;101171.94;;;30.16;32.02
70229;BME280;57617;51.988;5.854;2022-08-02T12:46:20;101171.75;;;30.24;32.67
70229;BME280;57617;51.988;5.854;2022-08-02T12:48:46;101167.94;;;30.32;32.56
70229;BME280;57617;51.988;5.854;2022-08-02T12:53:43;101160.66;;;30.47;32.06
70229;BME280;57617;51.988;5.854;2022-08-02T12:56:08;101172.88;;;30.54;32.29
70229;BME280;57617;51.988;5.854;2022-08-02T12:58:50;101167.50;;;30.65;31.34
70229;BME280;57617;51.988;5.854;2022-08-02T13:01:20;101168.06;;;30.70;31.42
70229;BME280;57617;51.988;5.854;2022-08-02T13:03:46;101163.06;;;30.64;32.13
70229;BME280;57617;51.988;5.854;2022-08-02T13:06:11;101167.34;;;30.58;31.39
70229;BME280;57617;51.988;5.854;2022-08-02T13:08:37;101165.72;;;30.57;31.61
70229;BME280;57617;51.988;5.854;2022-08-02T13:11:02;101168.66;;;30.45;31.51
70229;BME280;57617;51.988;5.854;2022-08-02T13:13:27;101167.09;;;30.47;31.59
70229;BME280;57617;51.988;5.854;2022-08-02T13:15:53;101170.88;;;30.55;31.68
70229;BME280;57617;51.988;5.854;2022-08-02T13:18:18;101170.41;;;30.53;31.45
70229;BME280;57617;51.988;5.854;2022-08-02T13:20:43;101160.94;;;30.42;30.97
70229;BME280;57617;51.988;5.854;2022-08-02T13:23:09;101158.44;;;30.37;30.82
70229;BME280;57617;51.988;5.854;2022-08-02T13:25:34;101164.66;;;30.46;31.15